sensor_id;sensor_type;location;lat;lon;timestamp;P1;durP1;ratioP1;P2;durP2;ratioP2
8359;SDS011;4217;48.762;11.428;2022-09-09T00:04:45;5.63;;;5.23;;
8359;SDS011;4217;48.762;11.428;2022-09-09T00:15:02;6.10;;;5.70;;
8359;SDS011;4217;48.762;11.428;2022-09-09T00:35:54;5.90;;;5.50;;
8359;SDS011;4217;48.762;11.428;2022-09-09T00:56:14;7.00;;;6.50;;
8359;SDS011;4217;48.762;11.428;2022-09-09T01:06:36;5.80;;;5.30;;
8359;SDS011;4217;48.762;11.428;2022-09-09T01:16:40;6.50;;;6.10;;
8359;SDS011;4217;48.762;11.428;2022-09-09T01:26:44;5.63;;;5.23;;
8359;SDS011;4217;48.762;11.428;2022-09-09T01:47:06;4.80;;;4.43;;
8359;SDS011;4217;48.762;11.428;2022-09-09T01:57:17;4.77;;;4.47;;
8359;SDS011;4217;48.762;11.428;2022-09-09T02:18:12;4.80;;;4.40;;
8359;SDS011;4217;48.762;11.428;2022-09-09T02:28:20;6.30;;;6.00;;
8359;SDS011;4217;48.762;11.428;2022-09-09T02:38:26;6.37;;;5.97;;
8359;SDS011;4217;48.762;11.428;2022-09-09T02:48:46;6.60;;;6.10;;
8359;SDS011;4217;48.762;11.428;2022-09-09T02:58:54;9.67;;;8.80;;
8359;SDS011;4217;48.762;11.428;2022-09-09T03:08:58;9.30;;;8.70;;
8359;SDS011;4217;48.762;11.428;2022-09-09T03:19:02;8.80;;;8.27;;
8359;SDS011;4217;48.762;11.428;2022-09-09T03:29:05;13.17;;;12.57;;
8359;SDS011;4217;48.762;11.428;2022-09-09T03:39:08;10.17;;;9.57;;
8359;SDS011;4217;48.762;11.428;2022-09-09T03:49:11;9.77;;;9.07;;
8359;SDS011;4217;48.762;11.428;2022-09-09T03:59:12;9.20;;;8.60;;
8359;SDS011;4217;48.762;11.428;2022-09-09T04:09:16;8.30;;;7.80;;
8359;SDS011;4217;48.762;11.428;2022-09-09T04:19:17;7.80;;;7.27;;
8359;SDS011;4217;48.762;11.428;2022-09-09T04:29:19;6.20;;;5.83;;
8359;SDS011;4217;48.762;11.428;2022-09-09T04:39:21;5.87;;;5.47;;
8359;SDS011;4217;48.762;11.428;2022-09-09T04:49:23;5.30;;;4.97;;
8359;SDS011;4217;48.762;11.428;2022-09-09T04:59:25;5.13;;;4.73;;
8359;SDS011;4217;48.762;11.428;2022-09-09T05:09:30;5.87;;;5.53;;
8359;SDS011;4217;48.762;11.428;2022-09-09T05:19:33;5.23;;;4.83;;
8359;SDS011;4217;48.762;11.428;2022-09-09T05:29:35;5.67;;;5.23;;
8359;SDS011;4217;48.762;11.428;2022-09-09T05:39:39;4.57;;;4.27;;
8359;SDS011;4217;48.762;11.428;2022-09-09T05:49:41;5.30;;;4.80;;
8359;SDS011;4217;48.762;11.428;2022-09-09T05:59:43;3.97;;;3.63;;
8359;SDS011;4217;48.762;11.428;2022-09-09T06:09:46;4.17;;;3.87;;
8359;SDS011;4217;48.762;11.428;2022-09-09T06:19:48;4.27;;;3.67;;
8359;SDS011;4217;48.762;11.428;2022-09-09T06:29:50;4.77;;;3.57;;
8359;SDS011;4217;48.762;11.428;2022-09-09T06:39:51;3.80;;;3.40;;
8359;SDS011;4217;48.762;11.428;2022-09-09T06:49:53;3.50;;;3.23;;
8359;SDS011;4217;48.762;11.428;2022-09-09T06:59:55;3.17;;;2.93;;
8359;SDS011;4217;48.762;11.428;2022-09-09T07:09:57;3.30;;;3.10;;
8359;SDS011;4217;48.762;11.428;2022-09-09T07:19:59;3.67;;;3.37;;
8359;SDS011;4217;48.762;11.428;2022-09-09T07:30:01;3.67;;;3.30;;
8359;SDS011;4217;48.762;11.428;2022-09-09T07:40:06;3.40;;;3.20;;
8359;SDS011;4217;48.762;11.428;2022-09-09T07:50:09;3.87;;;3.60;;
8359;SDS011;4217;48.762;11.428;2022-09-09T08:00:12;3.27;;;2.10;;
8359;SDS011;4217;48.762;11.428;2022-09-09T08:10:20;2.57;;;2.20;;
8359;SDS011;4217;48.762;11.428;2022-09-09T08:20:23;2.30;;;2.10;;
8359;SDS011;4217;48.762;11.428;2022-09-09T08:30:25;2.20;;;2.00;;
8359;SDS011;4217;48.762;11.428;2022-09-09T08:40:29;2.10;;;1.90;;
8359;SDS011;4217;48.762;11.428;2022-09-09T08:50:38;3.30;;;3.20;;
8359;SDS011;4217;48.762;11.428;2022-09-09T09:10:58;2.35;;;1.75;;
8359;SDS011;4217;48.762;11.428;2022-09-09T09:31:13;8.50;;;7.80;;
8359;SDS011;4217;48.762;11.428;2022-09-09T09:41:28;1.45;;;1.35;;
8359;SDS011;4217;48.762;11.428;2022-09-09T09:51:32;5.88;;;3.95;;
8359;SDS011;4217;48.762;11.428;2022-09-09T10:01:35;1.60;;;1.02;;
8359;SDS011;4217;48.762;11.428;2022-09-09T10:11:44;1.10;;;1.10;;
8359;SDS011;4217;48.762;11.428;2022-09-09T10:32:24;0.90;;;0.90;;
8359;SDS011;4217;48.762;11.428;2022-09-09T10:43:04;1.38;;;1.30;;
8359;SDS011;4217;48.762;11.428;2022-09-09T10:53:45;1.67;;;1.25;;
8359;SDS011;4217;48.762;11.428;2022-09-09T11:03:55;1.02;;;0.80;;
8359;SDS011;4217;48.762;11.428;2022-09-09T11:14:15;1.65;;;1.55;;
8359;SDS011;4217;48.762;11.428;2022-09-09T11:24:27;2.15;;;1.55;;
8359;SDS011;4217;48.762;11.428;2022-09-09T11:55:28;2.28;;;2.15;;
8359;SDS011;4217;48.762;11.428;2022-09-09T12:05:44;12.00;;;11.38;;
8359;SDS011;4217;48.762;11.428;2022-09-09T12:15:48;8.55;;;8.15;;
8359;SDS011;4217;48.762;11.428;2022-09-09T12:36:03;8.03;;;7.53;;
8359;SDS011;4217;48.762;11.428;2022-09-09T12:46:07;6.03;;;5.83;;
8359;SDS011;4217;48.762;11.428;2022-09-09T12:56:20;4.33;;;4.03;;
8359;SDS011;4217;48.762;11.428;2022-09-09T13:06:27;3.50;;;3.30;;
8359;SDS011;4217;48.762;11.428;2022-09-09T13:16:34;3.97;;;3.57;;
8359;SDS011;4217;48.762;11.428;2022-09-09T13:26:43;2.60;;;2.43;;
8359;SDS011;4217;48.762;11.428;2022-09-09T13:36:46;2.30;;;2.20;;
8359;SDS011;4217;48.762;11.428;2022-09-09T13:47:03;2.23;;;1.80;;
8359;SDS011;4217;48.762;11.428;2022-09-09T13:57:23;3.33;;;3.13;;
8359;SDS011;4217;48.762;11.428;2022-09-09T14:07:26;4.80;;;4.60;;
8359;SDS011;4217;48.762;11.428;2022-09-09T14:17:28;4.00;;;3.80;;
8359;SDS011;4217;48.762;11.428;2022-09-09T14:27:32;4.90;;;4.70;;
8359;SDS011;4217;48.762;11.428;2022-09-09T14:37:34;4.97;;;4.77;;
8359;SDS011;4217;48.762;11.428;2022-09-09T14:47:36;4.50;;;4.30;;
8359;SDS011;4217;48.762;11.428;2022-09-09T14:57:37;6.83;;;6.53;;
8359;SDS011;4217;48.762;11.428;2022-09-09T15:07:40;7.43;;;7.03;;
8359;SDS011;4217;48.762;11.428;2022-09-09T15:17:41;5.50;;;5.10;;
8359;SDS011;4217;48.762;11.428;2022-09-09T15:27:43;3.87;;;3.47;;
8359;SDS011;4217;48.762;11.428;2022-09-09T15:37:45;3.77;;;3.47;;
8359;SDS011;4217;48.762;11.428;2022-09-09T15:47:47;3.60;;;3.40;;
8359;SDS011;4217;48.762;11.428;2022-09-09T15:57:48;3.33;;;3.23;;
8359;SDS011;4217;48.762;11.428;2022-09-09T16:07:50;3.67;;;3.57;;
8359;SDS011;4217;48.762;11.428;2022-09-09T16:17:53;4.40;;;4.17;;
8359;SDS011;4217;48.762;11.428;2022-09-09T16:27:55;4.80;;;4.60;;
8359;SDS011;4217;48.762;11.428;2022-09-09T16:37:57;6.10;;;5.90;;
8359;SDS011;4217;48.762;11.428;2022-09-09T16:47:59;4.97;;;4.77;;
8359;SDS011;4217;48.762;11.428;2022-09-09T16:58:01;3.90;;;3.80;;
8359;SDS011;4217;48.762;11.428;2022-09-09T17:08:03;4.50;;;4.30;;
8359;SDS011;4217;48.762;11.428;2022-09-09T17:18:06;5.13;;;4.83;;
8359;SDS011;4217;48.762;11.428;2022-09-09T17:28:08;4.20;;;3.93;;
8359;SDS011;4217;48.762;11.428;2022-09-09T17:38:10;2.43;;;2.20;;
8359;SDS011;4217;48.762;11.428;2022-09-09T17:48:13;2.50;;;2.40;;
8359;SDS011;4217;48.762;11.428;2022-09-09T17:58:14;2.70;;;2.50;;
8359;SDS011;4217;48.762;11.428;2022-09-09T18:08:16;3.00;;;2.57;;
8359;SDS011;4217;48.762;11.428;2022-09-09T18:18:18;3.27;;;3.00;;
8359;SDS011;4217;48.762;11.428;2022-09-09T18:28:20;3.93;;;3.63;;
8359;SDS011;4217;48.762;11.428;2022-09-09T18:38:25;4.13;;;3.80;;
8359;SDS011;4217;48.762;11.428;2022-09-09T18:48:26;3.70;;;3.27;;
8359;SDS011;4217;48.762;11.428;2022-09-09T18:58:29;3.97;;;3.70;;
8359;SDS011;4217;48.762;11.428;2022-09-09T19:08:34;4.17;;;3.67;;
8359;SDS011;4217;48.762;11.428;2022-09-09T19:18:38;3.13;;;2.97;;
8359;SDS011;4217;48.762;11.428;2022-09-09T19:28:42;4.33;;;4.03;;
8359;SDS011;4217;48.762;11.428;2022-09-09T19:38:47;4.03;;;2.90;;
8359;SDS011;4217;48.762;11.428;2022-09-09T19:48:48;2.87;;;2.60;;
8359;SDS011;4217;48.762;11.428;2022-09-09T19:58:51;3.33;;;3.03;;
8359;SDS011;4217;48.762;11.428;2022-09-09T20:08:54;7.30;;;6.80;;
8359;SDS011;4217;48.762;11.428;2022-09-09T20:18:58;4.23;;;3.93;;
8359;SDS011;4217;48.762;11.428;2022-09-09T20:29:03;3.23;;;2.97;;
8359;SDS011;4217;48.762;11.428;2022-09-09T20:39:10;3.67;;;3.37;;
8359;SDS011;4217;48.762;11.428;2022-09-09T20:49:16;4.80;;;4.40;;
8359;SDS011;4217;48.762;11.428;2022-09-09T20:59:20;3.63;;;3.43;;
8359;SDS011;4217;48.762;11.428;2022-09-09T21:09:23;4.40;;;4.10;;
8359;SDS011;4217;48.762;11.428;2022-09-09T21:19:25;12.53;;;11.93;;
8359;SDS011;4217;48.762;11.428;2022-09-09T21:29:26;11.37;;;10.87;;
8359;SDS011;4217;48.762;11.428;2022-09-09T21:39:28;7.33;;;7.03;;
8359;SDS011;4217;48.762;11.428;2022-09-09T21:49:29;4.33;;;4.03;;
8359;SDS011;4217;48.762;11.428;2022-09-09T21:59:31;5.40;;;5.00;;
8359;SDS011;4217;48.762;11.428;2022-09-09T22:09:35;10.40;;;9.87;;
8359;SDS011;4217;48.762;11.428;2022-09-09T22:19:38;11.60;;;10.90;;
8359;SDS011;4217;48.762;11.428;2022-09-09T22:29:40;12.13;;;11.60;;
8359;SDS011;4217;48.762;11.428;2022-09-09T22:39:42;7.00;;;6.70;;
8359;SDS011;4217;48.762;11.428;2022-09-09T22:49:44;4.73;;;4.27;;
8359;SDS011;4217;48.762;11.428;2022-09-09T22:59:46;6.27;;;5.77;;
8359;SDS011;4217;48.762;11.428;2022-09-09T23:09:48;3.90;;;3.60;;
8359;SDS011;4217;48.762;11.428;2022-09-09T23:19:49;3.43;;;3.23;;
8359;SDS011;4217;48.762;11.428;2022-09-09T23:29:56;4.07;;;3.77;;
8359;SDS011;4217;48.762;11.428;2022-09-09T23:39:58;4.70;;;3.00;;
8359;SDS011;4217;48.762;11.428;2022-09-09T23:50:00;2.83;;;2.63;;
